sensor_id;sensor_type;location;lat;lon;timestamp;P1;durP1;ratioP1;P2;durP2;ratioP2
68384;SDS011;55336;43.062;25.626;2023-07-02T00:01:12;3.65;;;3.30;;
68384;SDS011;55336;43.062;25.626;2023-07-02T00:06:04;4.40;;;3.65;;
68384;SDS011;55336;43.062;25.626;2023-07-02T00:08:30;4.32;;;3.85;;
68384;SDS011;55336;43.062;25.626;2023-07-02T00:10:56;4.30;;;4.00;;
68384;SDS011;55336;43.062;25.626;2023-07-02T00:15:47;3.72;;;3.42;;
68384;SDS011;55336;43.062;25.626;2023-07-02T00:20:42;3.95;;;3.65;;
68384;SDS011;55336;43.062;25.626;2023-07-02T00:23:08;3.95;;;3.65;;
68384;SDS011;55336;43.062;25.626;2023-07-02T00:25:35;4.40;;;4.03;;
68384;SDS011;55336;43.062;25.626;2023-07-02T00:28:02;4.78;;;4.10;;
68384;SDS011;55336;43.062;25.626;2023-07-02T00:30:28;4.53;;;3.58;;
68384;SDS011;55336;43.062;25.626;2023-07-02T00:32:53;3.88;;;3.58;;
68384;SDS011;55336;43.062;25.626;2023-07-02T00:35:20;3.55;;;3.25;;
68384;SDS011;55336;43.062;25.626;2023-07-02T00:37:46;4.15;;;3.85;;
68384;SDS011;55336;43.062;25.626;2023-07-02T00:42:37;5.53;;;4.00;;
68384;SDS011;55336;43.062;25.626;2023-07-02T00:47:32;3.75;;;3.50;;
68384;SDS011;55336;43.062;25.626;2023-07-02T00:50:00;3.53;;;3.30;;
68384;SDS011;55336;43.062;25.626;2023-07-02T00:52:26;3.60;;;3.30;;
68384;SDS011;55336;43.062;25.626;2023-07-02T00:57:18;3.58;;;3.28;;
68384;SDS011;55336;43.062;25.626;2023-07-02T00:59:44;4.50;;;4.10;;
68384;SDS011;55336;43.062;25.626;2023-07-02T01:02:11;3.72;;;3.28;;
68384;SDS011;55336;43.062;25.626;2023-07-02T01:04:38;4.13;;;3.72;;
68384;SDS011;55336;43.062;25.626;2023-07-02T01:07:04;4.30;;;4.00;;
68384;SDS011;55336;43.062;25.626;2023-07-02T01:09:36;6.50;;;3.70;;
68384;SDS011;55336;43.062;25.626;2023-07-02T01:14:37;3.35;;;3.05;;
68384;SDS011;55336;43.062;25.626;2023-07-02T01:17:06;4.40;;;4.00;;
68384;SDS011;55336;43.062;25.626;2023-07-02T01:22:18;3.67;;;3.38;;
68384;SDS011;55336;43.062;25.626;2023-07-02T01:24:45;5.60;;;3.58;;
68384;SDS011;55336;43.062;25.626;2023-07-02T01:27:15;4.07;;;3.78;;
68384;SDS011;55336;43.062;25.626;2023-07-02T01:29:41;3.40;;;3.15;;
68384;SDS011;55336;43.062;25.626;2023-07-02T01:32:09;5.47;;;3.72;;
68384;SDS011;55336;43.062;25.626;2023-07-02T01:34:36;5.10;;;4.07;;
68384;SDS011;55336;43.062;25.626;2023-07-02T01:37:02;4.10;;;3.80;;
68384;SDS011;55336;43.062;25.626;2023-07-02T01:39:29;4.00;;;3.70;;
68384;SDS011;55336;43.062;25.626;2023-07-02T01:41:55;3.75;;;3.45;;
68384;SDS011;55336;43.062;25.626;2023-07-02T01:44:50;4.63;;;4.22;;
68384;SDS011;55336;43.062;25.626;2023-07-02T01:49:42;5.47;;;4.97;;
68384;SDS011;55336;43.062;25.626;2023-07-02T01:52:07;4.95;;;4.55;;
68384;SDS011;55336;43.062;25.626;2023-07-02T01:54:35;5.97;;;5.30;;
68384;SDS011;55336;43.062;25.626;2023-07-02T01:57:00;5.88;;;4.60;;
68384;SDS011;55336;43.062;25.626;2023-07-02T01:59:26;5.93;;;5.43;;
68384;SDS011;55336;43.062;25.626;2023-07-02T02:04:18;6.18;;;5.25;;
68384;SDS011;55336;43.062;25.626;2023-07-02T02:09:10;4.55;;;4.18;;
68384;SDS011;55336;43.062;25.626;2023-07-02T02:11:43;5.40;;;4.78;;
68384;SDS011;55336;43.062;25.626;2023-07-02T02:14:11;4.30;;;4.00;;
68384;SDS011;55336;43.062;25.626;2023-07-02T02:19:02;4.35;;;4.03;;
68384;SDS011;55336;43.062;25.626;2023-07-02T02:21:29;5.13;;;4.20;;
68384;SDS011;55336;43.062;25.626;2023-07-02T02:23:55;3.80;;;3.50;;
68384;SDS011;55336;43.062;25.626;2023-07-02T02:28:47;5.03;;;4.63;;
68384;SDS011;55336;43.062;25.626;2023-07-02T02:31:14;5.40;;;4.88;;
68384;SDS011;55336;43.062;25.626;2023-07-02T02:33:40;4.97;;;4.18;;
68384;SDS011;55336;43.062;25.626;2023-07-02T02:36:09;5.45;;;4.95;;
68384;SDS011;55336;43.062;25.626;2023-07-02T02:38:34;4.82;;;4.43;;
68384;SDS011;55336;43.062;25.626;2023-07-02T02:41:02;5.47;;;4.07;;
68384;SDS011;55336;43.062;25.626;2023-07-02T02:43:28;4.82;;;4.43;;
68384;SDS011;55336;43.062;25.626;2023-07-02T02:48:20;5.20;;;4.45;;
68384;SDS011;55336;43.062;25.626;2023-07-02T02:50:48;4.55;;;4.25;;
68384;SDS011;55336;43.062;25.626;2023-07-02T02:53:14;5.03;;;4.60;;
68384;SDS011;55336;43.062;25.626;2023-07-02T02:58:05;6.22;;;3.58;;
68384;SDS011;55336;43.062;25.626;2023-07-02T03:00:31;4.53;;;4.20;;
68384;SDS011;55336;43.062;25.626;2023-07-02T03:02:58;4.53;;;4.10;;
68384;SDS011;55336;43.062;25.626;2023-07-02T03:05:24;4.05;;;3.50;;
68384;SDS011;55336;43.062;25.626;2023-07-02T03:07:50;7.20;;;5.05;;
68384;SDS011;55336;43.062;25.626;2023-07-02T03:10:16;3.75;;;3.45;;
68384;SDS011;55336;43.062;25.626;2023-07-02T03:12:42;5.53;;;4.90;;
68384;SDS011;55336;43.062;25.626;2023-07-02T03:17:34;4.43;;;4.07;;
68384;SDS011;55336;43.062;25.626;2023-07-02T03:22:29;4.55;;;4.15;;
68384;SDS011;55336;43.062;25.626;2023-07-02T03:24:55;4.32;;;4.00;;
68384;SDS011;55336;43.062;25.626;2023-07-02T03:27:20;4.32;;;3.90;;
68384;SDS011;55336;43.062;25.626;2023-07-02T03:32:12;4.53;;;4.20;;
68384;SDS011;55336;43.062;25.626;2023-07-02T03:37:04;3.80;;;3.55;;
68384;SDS011;55336;43.062;25.626;2023-07-02T03:41:55;6.00;;;5.00;;
68384;SDS011;55336;43.062;25.626;2023-07-02T03:44:21;4.68;;;4.38;;
68384;SDS011;55336;43.062;25.626;2023-07-02T03:49:13;4.50;;;4.20;;
68384;SDS011;55336;43.062;25.626;2023-07-02T03:54:04;4.97;;;4.57;;
68384;SDS011;55336;43.062;25.626;2023-07-02T03:58:56;5.18;;;4.68;;
68384;SDS011;55336;43.062;25.626;2023-07-02T04:03:51;4.75;;;4.32;;
68384;SDS011;55336;43.062;25.626;2023-07-02T04:06:18;5.20;;;4.80;;
68384;SDS011;55336;43.062;25.626;2023-07-02T04:08:44;5.35;;;4.85;;
68384;SDS011;55336;43.062;25.626;2023-07-02T04:11:10;5.93;;;4.22;;
68384;SDS011;55336;43.062;25.626;2023-07-02T04:13:37;5.05;;;4.65;;
68384;SDS011;55336;43.062;25.626;2023-07-02T04:16:03;5.53;;;5.03;;
68384;SDS011;55336;43.062;25.626;2023-07-02T04:20:55;5.53;;;4.55;;
68384;SDS011;55336;43.062;25.626;2023-07-02T04:23:21;5.50;;;5.10;;
68384;SDS011;55336;43.062;25.626;2023-07-02T04:25:47;7.00;;;6.25;;
68384;SDS011;55336;43.062;25.626;2023-07-02T04:30:39;6.10;;;5.60;;
68384;SDS011;55336;43.062;25.626;2023-07-02T04:35:31;5.45;;;4.95;;
68384;SDS011;55336;43.062;25.626;2023-07-02T04:37:57;5.82;;;5.32;;
68384;SDS011;55336;43.062;25.626;2023-07-02T04:40:23;6.78;;;6.10;;
68384;SDS011;55336;43.062;25.626;2023-07-02T04:45:23;5.53;;;5.03;;
68384;SDS011;55336;43.062;25.626;2023-07-02T04:47:57;8.70;;;6.07;;
68384;SDS011;55336;43.062;25.626;2023-07-02T04:52:48;5.95;;;5.50;;
68384;SDS011;55336;43.062;25.626;2023-07-02T04:57:40;5.93;;;5.32;;
68384;SDS011;55336;43.062;25.626;2023-07-02T05:02:33;6.00;;;5.40;;
68384;SDS011;55336;43.062;25.626;2023-07-02T05:07:24;4.32;;;3.92;;
68384;SDS011;55336;43.062;25.626;2023-07-02T05:09:51;3.88;;;3.47;;
68384;SDS011;55336;43.062;25.626;2023-07-02T05:12:18;3.78;;;3.47;;
68384;SDS011;55336;43.062;25.626;2023-07-02T05:14:44;5.85;;;4.13;;
68384;SDS011;55336;43.062;25.626;2023-07-02T05:17:10;6.40;;;5.90;;
68384;SDS011;55336;43.062;25.626;2023-07-02T05:22:02;8.43;;;7.72;;
68384;SDS011;55336;43.062;25.626;2023-07-02T05:24:28;7.30;;;6.53;;
68384;SDS011;55336;43.062;25.626;2023-07-02T05:29:20;6.82;;;6.32;;
68384;SDS011;55336;43.062;25.626;2023-07-02T05:34:11;10.02;;;9.30;;
68384;SDS011;55336;43.062;25.626;2023-07-02T05:36:37;12.07;;;9.35;;
68384;SDS011;55336;43.062;25.626;2023-07-02T05:39:03;11.68;;;10.73;;
68384;SDS011;55336;43.062;25.626;2023-07-02T05:41:29;10.25;;;9.52;;
68384;SDS011;55336;43.062;25.626;2023-07-02T05:43:56;10.13;;;9.13;;
68384;SDS011;55336;43.062;25.626;2023-07-02T05:46:23;7.70;;;7.10;;
68384;SDS011;55336;43.062;25.626;2023-07-02T05:48:49;8.10;;;7.50;;
68384;SDS011;55336;43.062;25.626;2023-07-02T05:51:19;8.80;;;8.13;;
68384;SDS011;55336;43.062;25.626;2023-07-02T05:53:49;8.57;;;7.78;;
68384;SDS011;55336;43.062;25.626;2023-07-02T05:56:16;7.55;;;6.93;;
68384;SDS011;55336;43.062;25.626;2023-07-02T05:58:41;7.30;;;6.70;;
68384;SDS011;55336;43.062;25.626;2023-07-02T06:01:07;9.45;;;8.55;;
68384;SDS011;55336;43.062;25.626;2023-07-02T06:03:33;8.18;;;7.45;;
68384;SDS011;55336;43.062;25.626;2023-07-02T06:05:59;7.40;;;6.80;;
68384;SDS011;55336;43.062;25.626;2023-07-02T06:08:25;6.50;;;5.20;;
68384;SDS011;55336;43.062;25.626;2023-07-02T06:10:51;6.78;;;6.15;;
68384;SDS011;55336;43.062;25.626;2023-07-02T06:13:17;5.53;;;4.65;;
68384;SDS011;55336;43.062;25.626;2023-07-02T06:15:43;5.30;;;4.80;;
68384;SDS011;55336;43.062;25.626;2023-07-02T06:18:10;4.50;;;4.20;;
68384;SDS011;55336;43.062;25.626;2023-07-02T06:20:36;4.60;;;4.25;;
68384;SDS011;55336;43.062;25.626;2023-07-02T06:23:02;3.60;;;3.40;;
68384;SDS011;55336;43.062;25.626;2023-07-02T06:25:28;4.32;;;3.95;;
68384;SDS011;55336;43.062;25.626;2023-07-02T06:27:54;4.68;;;4.28;;
68384;SDS011;55336;43.062;25.626;2023-07-02T06:30:23;5.55;;;5.03;;
68384;SDS011;55336;43.062;25.626;2023-07-02T06:32:49;6.05;;;5.50;;
68384;SDS011;55336;43.062;25.626;2023-07-02T06:35:15;4.32;;;3.92;;
68384;SDS011;55336;43.062;25.626;2023-07-02T06:37:41;4.25;;;3.95;;
68384;SDS011;55336;43.062;25.626;2023-07-02T06:40:07;4.10;;;3.80;;
68384;SDS011;55336;43.062;25.626;2023-07-02T06:42:33;4.75;;;4.35;;
68384;SDS011;55336;43.062;25.626;2023-07-02T06:45:01;6.57;;;3.72;;
68384;SDS011;55336;43.062;25.626;2023-07-02T06:47:27;4.38;;;4.00;;
68384;SDS011;55336;43.062;25.626;2023-07-02T06:49:53;3.28;;;3.08;;
68384;SDS011;55336;43.062;25.626;2023-07-02T06:52:19;3.10;;;2.90;;
68384;SDS011;55336;43.062;25.626;2023-07-02T06:54:45;3.15;;;2.95;;
68384;SDS011;55336;43.062;25.626;2023-07-02T06:57:12;3.35;;;3.05;;
68384;SDS011;55336;43.062;25.626;2023-07-02T06:59:38;3.10;;;2.88;;
68384;SDS011;55336;43.062;25.626;2023-07-02T07:02:04;3.00;;;2.80;;
68384;SDS011;55336;43.062;25.626;2023-07-02T07:04:30;3.40;;;3.20;;
68384;SDS011;55336;43.062;25.626;2023-07-02T07:06:55;3.33;;;3.03;;
68384;SDS011;55336;43.062;25.626;2023-07-02T07:09:21;2.40;;;2.30;;
68384;SDS011;55336;43.062;25.626;2023-07-02T07:11:47;3.47;;;3.20;;
68384;SDS011;55336;43.062;25.626;2023-07-02T07:14:13;3.20;;;2.63;;
68384;SDS011;55336;43.062;25.626;2023-07-02T07:16:39;3.55;;;3.13;;
68384;SDS011;55336;43.062;25.626;2023-07-02T07:19:05;3.50;;;3.20;;
68384;SDS011;55336;43.062;25.626;2023-07-02T07:21:33;3.55;;;3.15;;
68384;SDS011;55336;43.062;25.626;2023-07-02T07:23:59;3.40;;;2.80;;
68384;SDS011;55336;43.062;25.626;2023-07-02T07:26:25;2.53;;;2.33;;
68384;SDS011;55336;43.062;25.626;2023-07-02T07:28:51;2.92;;;2.63;;
68384;SDS011;55336;43.062;25.626;2023-07-02T07:31:16;3.78;;;2.42;;
68384;SDS011;55336;43.062;25.626;2023-07-02T07:33:42;4.03;;;2.92;;
68384;SDS011;55336;43.062;25.626;2023-07-02T07:36:09;3.60;;;3.17;;
68384;SDS011;55336;43.062;25.626;2023-07-02T07:38:35;3.60;;;2.95;;
68384;SDS011;55336;43.062;25.626;2023-07-02T07:41:00;3.40;;;3.10;;
68384;SDS011;55336;43.062;25.626;2023-07-02T07:43:26;3.15;;;2.88;;
68384;SDS011;55336;43.062;25.626;2023-07-02T07:45:52;2.92;;;2.65;;
68384;SDS011;55336;43.062;25.626;2023-07-02T07:48:18;2.65;;;2.47;;
68384;SDS011;55336;43.062;25.626;2023-07-02T07:50:44;5.05;;;3.20;;
68384;SDS011;55336;43.062;25.626;2023-07-02T07:53:09;3.30;;;3.08;;
68384;SDS011;55336;43.062;25.626;2023-07-02T07:55:35;2.58;;;2.38;;
68384;SDS011;55336;43.062;25.626;2023-07-02T07:58:01;3.08;;;2.78;;
68384;SDS011;55336;43.062;25.626;2023-07-02T08:00:27;2.80;;;2.60;;
68384;SDS011;55336;43.062;25.626;2023-07-02T08:02:53;3.38;;;3.10;;
68384;SDS011;55336;43.062;25.626;2023-07-02T08:05:20;4.20;;;2.67;;
68384;SDS011;55336;43.062;25.626;2023-07-02T08:07:46;2.67;;;2.47;;
68384;SDS011;55336;43.062;25.626;2023-07-02T08:10:12;3.22;;;2.92;;
68384;SDS011;55336;43.062;25.626;2023-07-02T08:12:38;2.35;;;2.13;;
68384;SDS011;55336;43.062;25.626;2023-07-02T08:15:04;2.80;;;2.63;;
68384;SDS011;55336;43.062;25.626;2023-07-02T08:17:30;2.85;;;2.53;;
68384;SDS011;55336;43.062;25.626;2023-07-02T08:19:56;4.90;;;3.58;;
68384;SDS011;55336;43.062;25.626;2023-07-02T08:22:23;3.58;;;2.58;;
68384;SDS011;55336;43.062;25.626;2023-07-02T08:24:48;3.28;;;3.00;;
68384;SDS011;55336;43.062;25.626;2023-07-02T08:27:17;3.13;;;2.85;;
68384;SDS011;55336;43.062;25.626;2023-07-02T08:29:46;2.63;;;2.42;;
68384;SDS011;55336;43.062;25.626;2023-07-02T08:32:12;2.60;;;2.45;;
68384;SDS011;55336;43.062;25.626;2023-07-02T08:34:38;2.40;;;2.30;;
68384;SDS011;55336;43.062;25.626;2023-07-02T08:37:04;4.35;;;3.47;;
68384;SDS011;55336;43.062;25.626;2023-07-02T08:39:30;2.83;;;2.63;;
68384;SDS011;55336;43.062;25.626;2023-07-02T08:41:56;4.07;;;2.78;;
68384;SDS011;55336;43.062;25.626;2023-07-02T08:44:22;3.25;;;3.05;;
68384;SDS011;55336;43.062;25.626;2023-07-02T08:46:49;3.08;;;2.88;;
68384;SDS011;55336;43.062;25.626;2023-07-02T08:49:21;2.55;;;2.35;;
68384;SDS011;55336;43.062;25.626;2023-07-02T08:51:47;4.10;;;2.75;;
68384;SDS011;55336;43.062;25.626;2023-07-02T08:54:13;2.92;;;2.72;;
68384;SDS011;55336;43.062;25.626;2023-07-02T08:56:42;2.72;;;2.53;;
68384;SDS011;55336;43.062;25.626;2023-07-02T08:59:08;2.80;;;2.60;;
68384;SDS011;55336;43.062;25.626;2023-07-02T09:01:47;2.80;;;2.60;;
68384;SDS011;55336;43.062;25.626;2023-07-02T09:04:18;3.25;;;2.92;;
68384;SDS011;55336;43.062;25.626;2023-07-02T09:07:11;3.78;;;3.47;;
68384;SDS011;55336;43.062;25.626;2023-07-02T09:09:46;2.83;;;2.63;;
68384;SDS011;55336;43.062;25.626;2023-07-02T09:12:25;3.17;;;2.90;;
68384;SDS011;55336;43.062;25.626;2023-07-02T09:14:59;4.45;;;3.28;;
68384;SDS011;55336;43.062;25.626;2023-07-02T09:17:35;2.35;;;2.25;;
68384;SDS011;55336;43.062;25.626;2023-07-02T09:20:02;2.35;;;2.25;;
68384;SDS011;55336;43.062;25.626;2023-07-02T09:22:33;3.45;;;3.15;;
68384;SDS011;55336;43.062;25.626;2023-07-02T09:25:00;2.58;;;2.38;;
68384;SDS011;55336;43.062;25.626;2023-07-02T09:27:37;3.45;;;3.10;;
68384;SDS011;55336;43.062;25.626;2023-07-02T09:30:13;2.65;;;2.45;;
68384;SDS011;55336;43.062;25.626;2023-07-02T09:32:43;3.00;;;2.70;;
68384;SDS011;55336;43.062;25.626;2023-07-02T09:35:10;5.32;;;2.85;;
68384;SDS011;55336;43.062;25.626;2023-07-02T09:37:36;2.95;;;2.75;;
68384;SDS011;55336;43.062;25.626;2023-07-02T09:40:04;2.88;;;2.63;;
68384;SDS011;55336;43.062;25.626;2023-07-02T09:42:33;4.22;;;3.13;;
68384;SDS011;55336;43.062;25.626;2023-07-02T09:45:00;2.70;;;2.50;;
68384;SDS011;55336;43.062;25.626;2023-07-02T09:47:27;2.80;;;2.60;;
68384;SDS011;55336;43.062;25.626;2023-07-02T09:49:55;4.05;;;3.38;;
68384;SDS011;55336;43.062;25.626;2023-07-02T09:52:24;2.65;;;2.45;;
68384;SDS011;55336;43.062;25.626;2023-07-02T09:54:51;4.40;;;3.13;;
68384;SDS011;55336;43.062;25.626;2023-07-02T09:57:17;3.40;;;3.10;;
68384;SDS011;55336;43.062;25.626;2023-07-02T09:59:43;2.65;;;2.45;;
68384;SDS011;55336;43.062;25.626;2023-07-02T10:02:09;3.78;;;3.47;;
68384;SDS011;55336;43.062;25.626;2023-07-02T10:04:42;4.57;;;3.58;;
68384;SDS011;55336;43.062;25.626;2023-07-02T10:07:09;5.43;;;3.50;;
68384;SDS011;55336;43.062;25.626;2023-07-02T10:09:39;3.00;;;2.80;;
68384;SDS011;55336;43.062;25.626;2023-07-02T10:12:28;3.22;;;2.97;;
68384;SDS011;55336;43.062;25.626;2023-07-02T10:14:54;3.47;;;3.17;;
68384;SDS011;55336;43.062;25.626;2023-07-02T10:19:56;3.88;;;3.55;;
68384;SDS011;55336;43.062;25.626;2023-07-02T10:22:26;4.05;;;3.65;;
68384;SDS011;55336;43.062;25.626;2023-07-02T10:24:58;5.63;;;3.67;;
68384;SDS011;55336;43.062;25.626;2023-07-02T10:27:38;3.00;;;2.80;;
68384;SDS011;55336;43.062;25.626;2023-07-02T10:30:06;3.72;;;3.33;;
68384;SDS011;55336;43.062;25.626;2023-07-02T10:32:33;3.20;;;2.90;;
68384;SDS011;55336;43.062;25.626;2023-07-02T10:35:01;4.32;;;3.40;;
68384;SDS011;55336;43.062;25.626;2023-07-02T10:37:36;3.05;;;2.80;;
68384;SDS011;55336;43.062;25.626;2023-07-02T10:40:04;2.58;;;2.38;;
68384;SDS011;55336;43.062;25.626;2023-07-02T10:42:47;2.88;;;2.67;;
68384;SDS011;55336;43.062;25.626;2023-07-02T10:45:14;3.15;;;2.67;;
68384;SDS011;55336;43.062;25.626;2023-07-02T10:47:41;2.50;;;2.30;;
68384;SDS011;55336;43.062;25.626;2023-07-02T10:50:13;1.95;;;1.77;;
68384;SDS011;55336;43.062;25.626;2023-07-02T10:52:40;2.55;;;2.35;;
68384;SDS011;55336;43.062;25.626;2023-07-02T10:55:06;2.50;;;2.30;;
68384;SDS011;55336;43.062;25.626;2023-07-02T10:57:33;2.47;;;2.28;;
68384;SDS011;55336;43.062;25.626;2023-07-02T11:00:05;2.00;;;1.85;;
68384;SDS011;55336;43.062;25.626;2023-07-02T11:02:42;2.50;;;2.30;;
68384;SDS011;55336;43.062;25.626;2023-07-02T11:05:08;2.00;;;1.90;;
68384;SDS011;55336;43.062;25.626;2023-07-02T11:07:41;3.38;;;2.30;;
68384;SDS011;55336;43.062;25.626;2023-07-02T11:10:07;2.42;;;2.25;;
68384;SDS011;55336;43.062;25.626;2023-07-02T11:12:34;2.40;;;2.20;;
68384;SDS011;55336;43.062;25.626;2023-07-02T11:15:08;2.92;;;2.60;;
68384;SDS011;55336;43.062;25.626;2023-07-02T11:17:34;2.47;;;2.30;;
68384;SDS011;55336;43.062;25.626;2023-07-02T11:20:00;3.17;;;2.13;;
68384;SDS011;55336;43.062;25.626;2023-07-02T11:22:32;2.45;;;2.25;;
68384;SDS011;55336;43.062;25.626;2023-07-02T11:25:08;2.15;;;2.05;;
68384;SDS011;55336;43.062;25.626;2023-07-02T11:27:45;2.33;;;2.22;;
68384;SDS011;55336;43.062;25.626;2023-07-02T11:30:11;3.05;;;2.63;;
68384;SDS011;55336;43.062;25.626;2023-07-02T11:32:50;2.33;;;2.13;;
68384;SDS011;55336;43.062;25.626;2023-07-02T11:35:17;2.67;;;2.35;;
68384;SDS011;55336;43.062;25.626;2023-07-02T11:37:44;3.28;;;2.97;;
68384;SDS011;55336;43.062;25.626;2023-07-02T11:40:11;3.70;;;2.33;;
68384;SDS011;55336;43.062;25.626;2023-07-02T11:42:38;5.40;;;3.08;;
68384;SDS011;55336;43.062;25.626;2023-07-02T11:45:04;2.67;;;2.40;;
68384;SDS011;55336;43.062;25.626;2023-07-02T11:47:30;2.95;;;2.70;;
68384;SDS011;55336;43.062;25.626;2023-07-02T11:49:55;3.60;;;2.78;;
68384;SDS011;55336;43.062;25.626;2023-07-02T11:52:21;2.40;;;2.30;;
68384;SDS011;55336;43.062;25.626;2023-07-02T11:54:48;2.58;;;2.38;;
68384;SDS011;55336;43.062;25.626;2023-07-02T11:57:13;2.63;;;2.42;;
68384;SDS011;55336;43.062;25.626;2023-07-02T11:59:40;2.60;;;2.40;;
68384;SDS011;55336;43.062;25.626;2023-07-02T12:02:06;2.47;;;2.28;;
68384;SDS011;55336;43.062;25.626;2023-07-02T12:04:32;2.80;;;2.05;;
68384;SDS011;55336;43.062;25.626;2023-07-02T12:06:59;2.55;;;2.30;;
68384;SDS011;55336;43.062;25.626;2023-07-02T12:09:26;5.50;;;2.88;;
68384;SDS011;55336;43.062;25.626;2023-07-02T12:11:53;2.22;;;2.10;;
68384;SDS011;55336;43.062;25.626;2023-07-02T12:14:18;2.90;;;2.70;;
68384;SDS011;55336;43.062;25.626;2023-07-02T12:16:44;2.58;;;2.47;;
68384;SDS011;55336;43.062;25.626;2023-07-02T12:19:10;2.33;;;2.00;;
68384;SDS011;55336;43.062;25.626;2023-07-02T12:21:36;3.20;;;2.80;;
68384;SDS011;55336;43.062;25.626;2023-07-02T12:24:02;3.25;;;2.95;;
68384;SDS011;55336;43.062;25.626;2023-07-02T12:26:28;2.88;;;2.58;;
68384;SDS011;55336;43.062;25.626;2023-07-02T12:28:54;3.15;;;2.95;;
68384;SDS011;55336;43.062;25.626;2023-07-02T12:31:20;3.60;;;3.30;;
68384;SDS011;55336;43.062;25.626;2023-07-02T12:33:46;2.88;;;2.67;;
68384;SDS011;55336;43.062;25.626;2023-07-02T12:36:11;3.10;;;2.67;;
68384;SDS011;55336;43.062;25.626;2023-07-02T12:38:39;3.35;;;3.05;;
68384;SDS011;55336;43.062;25.626;2023-07-02T12:41:04;2.85;;;2.65;;
68384;SDS011;55336;43.062;25.626;2023-07-02T12:43:30;5.82;;;3.75;;
68384;SDS011;55336;43.062;25.626;2023-07-02T12:45:56;3.10;;;2.90;;
68384;SDS011;55336;43.062;25.626;2023-07-02T12:48:22;3.47;;;3.17;;
68384;SDS011;55336;43.062;25.626;2023-07-02T12:50:54;2.85;;;2.65;;
68384;SDS011;55336;43.062;25.626;2023-07-02T12:53:21;6.80;;;2.63;;
68384;SDS011;55336;43.062;25.626;2023-07-02T12:55:48;2.85;;;2.55;;
68384;SDS011;55336;43.062;25.626;2023-07-02T12:58:13;3.97;;;2.92;;
68384;SDS011;55336;43.062;25.626;2023-07-02T13:00:39;2.75;;;2.55;;
68384;SDS011;55336;43.062;25.626;2023-07-02T13:03:09;1.98;;;1.88;;
68384;SDS011;55336;43.062;25.626;2023-07-02T13:05:36;3.00;;;2.55;;
68384;SDS011;55336;43.062;25.626;2023-07-02T13:08:02;2.15;;;2.00;;
68384;SDS011;55336;43.062;25.626;2023-07-02T13:10:28;2.85;;;2.63;;
68384;SDS011;55336;43.062;25.626;2023-07-02T13:12:55;2.90;;;2.70;;
68384;SDS011;55336;43.062;25.626;2023-07-02T13:15:21;3.83;;;2.67;;
68384;SDS011;55336;43.062;25.626;2023-07-02T13:17:47;2.72;;;2.53;;
68384;SDS011;55336;43.062;25.626;2023-07-02T13:20:13;4.05;;;2.97;;
68384;SDS011;55336;43.062;25.626;2023-07-02T13:22:39;3.60;;;2.60;;
68384;SDS011;55336;43.062;25.626;2023-07-02T13:25:05;3.42;;;3.13;;
68384;SDS011;55336;43.062;25.626;2023-07-02T13:27:32;3.30;;;3.00;;
68384;SDS011;55336;43.062;25.626;2023-07-02T13:29:58;3.92;;;3.28;;
68384;SDS011;55336;43.062;25.626;2023-07-02T13:32:24;2.40;;;2.30;;
68384;SDS011;55336;43.062;25.626;2023-07-02T13:34:50;4.38;;;3.05;;
68384;SDS011;55336;43.062;25.626;2023-07-02T13:37:15;2.20;;;2.08;;
68384;SDS011;55336;43.062;25.626;2023-07-02T13:39:47;2.80;;;2.60;;
68384;SDS011;55336;43.062;25.626;2023-07-02T13:42:14;3.00;;;2.80;;
68384;SDS011;55336;43.062;25.626;2023-07-02T13:44:40;3.60;;;3.15;;
68384;SDS011;55336;43.062;25.626;2023-07-02T13:47:07;6.53;;;3.03;;
68384;SDS011;55336;43.062;25.626;2023-07-02T13:49:33;3.25;;;2.97;;
68384;SDS011;55336;43.062;25.626;2023-07-02T13:51:59;2.25;;;2.08;;
68384;SDS011;55336;43.062;25.626;2023-07-02T13:54:25;2.35;;;2.15;;
68384;SDS011;55336;43.062;25.626;2023-07-02T13:56:51;2.67;;;2.47;;
68384;SDS011;55336;43.062;25.626;2023-07-02T13:59:18;3.05;;;2.85;;
68384;SDS011;55336;43.062;25.626;2023-07-02T14:01:45;3.50;;;3.13;;
68384;SDS011;55336;43.062;25.626;2023-07-02T14:04:12;2.45;;;2.25;;
68384;SDS011;55336;43.062;25.626;2023-07-02T14:06:40;3.95;;;3.22;;
68384;SDS011;55336;43.062;25.626;2023-07-02T14:09:06;2.35;;;2.20;;
68384;SDS011;55336;43.062;25.626;2023-07-02T14:11:33;3.08;;;2.35;;
68384;SDS011;55336;43.062;25.626;2023-07-02T14:14:00;2.92;;;2.63;;
68384;SDS011;55336;43.062;25.626;2023-07-02T14:16:26;2.78;;;2.58;;
68384;SDS011;55336;43.062;25.626;2023-07-02T14:18:52;2.90;;;2.70;;
68384;SDS011;55336;43.062;25.626;2023-07-02T14:21:18;4.05;;;3.13;;
68384;SDS011;55336;43.062;25.626;2023-07-02T14:23:45;3.03;;;2.83;;
68384;SDS011;55336;43.062;25.626;2023-07-02T14:26:11;3.08;;;2.83;;
68384;SDS011;55336;43.062;25.626;2023-07-02T14:28:37;3.05;;;2.72;;
68384;SDS011;55336;43.062;25.626;2023-07-02T14:31:04;3.60;;;3.30;;
68384;SDS011;55336;43.062;25.626;2023-07-02T14:33:31;4.78;;;3.97;;
68384;SDS011;55336;43.062;25.626;2023-07-02T14:35:59;3.05;;;2.78;;
68384;SDS011;55336;43.062;25.626;2023-07-02T14:38:25;3.55;;;2.60;;
68384;SDS011;55336;43.062;25.626;2023-07-02T14:40:52;3.63;;;3.22;;
68384;SDS011;55336;43.062;25.626;2023-07-02T14:43:21;3.40;;;3.10;;
68384;SDS011;55336;43.062;25.626;2023-07-02T14:45:51;3.80;;;2.78;;
68384;SDS011;55336;43.062;25.626;2023-07-02T14:48:19;2.05;;;1.95;;
68384;SDS011;55336;43.062;25.626;2023-07-02T14:50:47;2.00;;;1.90;;
68384;SDS011;55336;43.062;25.626;2023-07-02T14:53:14;3.42;;;2.50;;
68384;SDS011;55336;43.062;25.626;2023-07-02T14:55:41;2.13;;;2.03;;
68384;SDS011;55336;43.062;25.626;2023-07-02T14:58:07;2.38;;;2.20;;
68384;SDS011;55336;43.062;25.626;2023-07-02T15:00:33;2.60;;;2.40;;
68384;SDS011;55336;43.062;25.626;2023-07-02T15:03:00;2.47;;;2.28;;
68384;SDS011;55336;43.062;25.626;2023-07-02T15:05:26;2.30;;;2.20;;
68384;SDS011;55336;43.062;25.626;2023-07-02T15:07:52;2.40;;;2.20;;
68384;SDS011;55336;43.062;25.626;2023-07-02T15:10:18;2.22;;;2.13;;
68384;SDS011;55336;43.062;25.626;2023-07-02T15:12:44;1.88;;;1.77;;
68384;SDS011;55336;43.062;25.626;2023-07-02T15:15:10;1.75;;;1.65;;
68384;SDS011;55336;43.062;25.626;2023-07-02T15:17:36;1.95;;;1.85;;
68384;SDS011;55336;43.062;25.626;2023-07-02T15:20:02;1.98;;;1.88;;
68384;SDS011;55336;43.062;25.626;2023-07-02T15:22:28;2.53;;;2.33;;
68384;SDS011;55336;43.062;25.626;2023-07-02T15:24:55;2.42;;;2.22;;
68384;SDS011;55336;43.062;25.626;2023-07-02T15:27:21;3.40;;;2.15;;
68384;SDS011;55336;43.062;25.626;2023-07-02T15:29:46;1.95;;;1.85;;
68384;SDS011;55336;43.062;25.626;2023-07-02T15:32:13;2.05;;;1.95;;
68384;SDS011;55336;43.062;25.626;2023-07-02T15:34:39;1.95;;;1.85;;
68384;SDS011;55336;43.062;25.626;2023-07-02T15:37:05;1.98;;;1.88;;
68384;SDS011;55336;43.062;25.626;2023-07-02T15:39:33;3.10;;;2.80;;
68384;SDS011;55336;43.062;25.626;2023-07-02T15:41:59;2.20;;;2.10;;
68384;SDS011;55336;43.062;25.626;2023-07-02T15:44:25;2.25;;;2.15;;
68384;SDS011;55336;43.062;25.626;2023-07-02T15:46:51;3.10;;;2.90;;
68384;SDS011;55336;43.062;25.626;2023-07-02T15:49:17;2.85;;;2.65;;
68384;SDS011;55336;43.062;25.626;2023-07-02T15:51:43;3.80;;;2.88;;
68384;SDS011;55336;43.062;25.626;2023-07-02T15:54:09;2.83;;;2.58;;
68384;SDS011;55336;43.062;25.626;2023-07-02T15:56:35;4.45;;;2.67;;
68384;SDS011;55336;43.062;25.626;2023-07-02T15:59:01;2.83;;;2.42;;
68384;SDS011;55336;43.062;25.626;2023-07-02T16:01:28;3.42;;;3.13;;